Time;durP1;ratioP1;P1;durP2;ratioP2;P2;SDS_P1;SDS_P2;PMS_P1;PMS_P2;Temp;Humidity;BMP_temperature;BMP_pressure;BME280_temperature;BME280_humidity;BME280_pressure;Samples;Min_cycle;Max_cycle;Signal;HPM_P1;HPM_P2
2021/11/13 00:00:29;;;;;;;28.43;21.97;;;;;;;5.43;72.62;101150.84;1715043;81;21566;-65
2021/11/13 00:02:55;;;;;;;31.27;22.57;;;;;;;5.39;72.89;101153.41;1731424;82;21057;-62
2021/11/13 00:05:24;;;;;;;27.55;20.15;;;;;;;5.38;72.88;101155.19;1733749;81;21576;-70
2021/11/13 00:07:51;;;;;;;28.40;20.17;;;;;;;5.43;73.00;101149.52;1731818;81;21022;-64
2021/11/13 00:10:25;;;;;;;27.13;20.27;;;;;;;5.47;72.74;101153.56;1733597;81;20999;-63
2021/11/13 00:12:48;;;;;;;29.43;21.57;;;;;;;5.46;72.67;101150.08;1715955;81;20974;-64
2021/11/13 00:15:20;;;;;;;30.03;22.70;;;;;;;5.40;72.60;101154.56;1722235;81;21122;-65
2021/11/13 00:17:45;;;;;;;30.47;21.67;;;;;;;5.35;72.80;101158.58;1733095;81;21131;-63
2021/11/13 00:20:11;;;;;;;;;;;;;;;5.29;72.73;101157.31;1722077;81;21049;-63
2021/11/13 00:22:39;;;;;;;32.40;21.60;;;;;;;5.25;72.84;101157.23;1728173;81;20136;-64
2021/11/13 00:25:06;;;;;;;31.97;22.23;;;;;;;5.14;73.00;101164.80;1685184;83;21038;-64
2021/11/13 00:27:35;;;;;;;28.90;19.60;;;;;;;5.08;73.10;101163.98;1696742;84;21608;-67
2021/11/13 00:30:04;;;;;;;31.77;23.23;;;;;;;5.08;73.06;101166.63;1689328;84;21061;-64
2021/11/13 00:32:31;;;;;;;27.00;19.63;;;;;;;5.05;72.94;101167.73;1691315;83;21034;-62
2021/11/13 00:34:57;;;;;;;34.27;22.00;;;;;;;5.03;72.78;101170.17;1654778;83;21054;-63
2021/11/13 00:37:24;;;;;;;33.15;23.80;;;;;;;4.90;72.70;101167.73;1658480;85;21035;-64
2021/11/13 00:39:52;;;;;;;28.77;22.27;;;;;;;4.76;73.22;101169.37;1655893;85;21168;-62
2021/11/13 00:42:19;;;;;;;29.92;21.45;;;;;;;4.65;73.70;101171.59;1638470;86;21073;-64
2021/11/13 00:44:45;;;;;;;30.43;22.20;;;;;;;4.56;74.10;101170.59;1652756;85;21543;-64
2021/11/13 00:47:12;;;;;;;27.73;20.47;;;;;;;4.49;74.23;101175.53;1646200;85;21070;-62
2021/11/13 00:49:38;;;;;;;29.85;20.48;;;;;;;4.45;74.49;101171.48;1642899;85;21106;-63
2021/11/13 00:52:07;;;;;;;25.82;19.25;;;;;;;4.48;74.22;101171.69;1674041;85;21099;-64
2021/11/13 00:54:33;;;;;;;29.10;21.90;;;;;;;4.44;74.19;101170.28;1648717;86;20992;-63
2021/11/13 00:57:01;;;;;;;26.80;19.82;;;;;;;4.41;74.35;101168.75;1652734;86;21141;-63
2021/11/13 00:59:30;;;;;;;30.20;21.70;;;;;;;4.38;74.62;101174.76;1654428;85;21008;-63
2021/11/13 01:01:58;;;;;;;31.47;21.87;;;;;;;4.27;75.07;101174.31;1648781;85;21565;-64
2021/11/13 01:04:25;;;;;;;31.63;23.17;;;;;;;4.20;75.29;101177.10;1648359;85;21018;-62
2021/11/13 01:06:53;;;;;;;29.90;21.90;;;;;;;4.13;75.36;101169.36;1665770;84;21094;-64
2021/11/13 01:09:19;;;;;;;30.87;21.83;;;;;;;4.06;75.54;101177.75;1674282;84;21075;-63
2021/11/13 01:11:49;;;;;;;29.53;20.90;;;;;;;4.07;76.11;101173.34;1667169;84;21086;-63
2021/11/13 01:14:19;;;;;;;30.67;20.70;;;;;;;4.14;76.15;101168.38;1685336;84;21512;-64
2021/11/13 01:16:47;;;;;;;30.47;21.90;;;;;;;4.23;76.31;101168.94;1676086;84;21085;-63
2021/11/13 01:19:13;;;;;;;31.62;20.88;;;;;;;4.31;76.16;101170.95;1684504;84;21090;-62
2021/11/13 01:21:41;;;;;;;26.63;19.40;;;;;;;4.36;76.18;101176.20;1675695;84;21041;-64
2021/11/13 01:24:11;;;;;;;29.97;19.67;;;;;;;4.38;76.40;101168.16;1713987;82;20987;-63
2021/11/13 01:26:37;;;;;;;33.33;21.70;;;;;;;4.43;76.85;101165.49;1716632;82;21060;-64
2021/11/13 01:29:05;;;;;;;28.93;20.67;;;;;;;4.51;76.72;101170.62;1718198;82;21527;-64
2021/11/13 01:31:32;;;;;;;31.57;20.73;;;;;;;4.54;76.73;101168.56;1714891;82;21128;-64
2021/11/13 01:33:59;;;;;;;29.17;19.73;;;;;;;4.59;76.53;101167.67;1717821;82;21065;-62
2021/11/13 01:36:29;;;;;;;29.63;21.27;;;;;;;4.70;76.37;101170.73;1716444;83;21056;-63
2021/11/13 01:38:56;;;;;;;28.70;20.50;;;;;;;4.80;76.01;101173.43;1722511;83;21175;-63
2021/11/13 01:41:23;;;;;;;27.48;19.60;;;;;;;4.84;75.75;101177.02;1714953;83;21029;-67
2021/11/13 01:43:50;;;;;;;27.93;20.60;;;;;;;4.87;75.58;101170.62;1713559;83;21103;-64
2021/11/13 01:46:17;;;;;;;29.03;20.37;;;;;;;4.83;75.49;101167.90;1695707;83;21029;-64
2021/11/13 01:48:44;;;;;;;31.50;22.10;;;;;;;4.80;75.45;101169.01;1684894;83;20998;-65
2021/11/13 01:51:21;;;;;;;29.45;20.68;;;;;;;4.79;75.79;101177.88;1688346;83;21025;-63
2021/11/13 01:53:51;;;;;;;29.37;19.60;;;;;;;4.74;75.74;101179.23;1678921;83;20994;-65
2021/11/13 01:56:19;;;;;;;24.20;17.97;;;;;;;4.69;75.72;101177.00;1688276;84;21153;-64
2021/11/13 01:58:50;;;;;;;32.53;19.83;;;;;;;4.72;75.55;101177.22;1686284;84;21031;-64
2021/11/13 02:01:17;;;;;;;28.83;19.90;;;;;;;4.70;75.14;101181.30;1642950;85;21045;-64
2021/11/13 02:03:48;;;;;;;26.23;20.07;;;;;;;4.66;75.30;101189.13;1676953;84;21027;-63
2021/11/13 02:06:17;;;;;;;28.70;20.13;;;;;;;4.58;75.02;101190.27;1672813;85;21042;-64
2021/11/13 02:08:45;;;;;;;28.37;20.30;;;;;;;4.46;74.81;101191.64;1675911;84;21093;-66
2021/11/13 02:11:15;;;;;;;27.47;19.27;;;;;;;4.36;74.92;101199.13;1647074;85;21189;-66
2021/11/13 02:13:44;;;;;;;33.73;20.33;;;;;;;4.27;75.21;101199.39;1627064;86;21063;-63
2021/11/13 02:16:13;;;;;;;27.23;19.27;;;;;;;4.23;75.02;101195.33;1628375;86;21051;-63
2021/11/13 02:18:41;;;;;;;;;;;;;;;4.20;75.38;101188.52;1616511;88;21033;-62
2021/11/13 02:21:10;;;;;;;25.50;17.83;;;;;;;4.21;75.74;101185.39;1618227;86;20221;-64
2021/11/13 02:23:40;;;;;;;26.57;20.13;;;;;;;4.23;76.40;101186.09;1637533;86;20991;-64
2021/11/13 02:26:07;;;;;;;28.03;19.97;;;;;;;4.28;77.04;101187.88;1643812;85;21056;-63
2021/11/13 02:28:35;;;;;;;30.23;21.07;;;;;;;4.29;77.18;101194.36;1651172;85;21035;-62
2021/11/13 02:31:07;;;;;;;27.47;20.73;;;;;;;4.33;77.19;101195.41;1665226;85;21196;-64
2021/11/13 02:33:37;;;;;;;28.93;20.53;;;;;;;4.37;77.29;101191.09;1657734;85;21656;-64
2021/11/13 02:36:08;;;;;;;30.00;21.07;;;;;;;4.37;76.92;101194.19;1650698;85;21077;-65
2021/11/13 02:38:39;;;;;;;27.97;20.33;;;;;;;4.38;76.88;101196.70;1641282;85;21053;-65
2021/11/13 02:41:11;;;;;;;29.27;19.47;;;;;;;4.46;76.94;101200.03;1659884;85;21026;-64
2021/11/13 02:43:40;;;;;;;27.93;20.17;;;;;;;4.53;76.98;101200.37;1670257;84;21078;-64
2021/11/13 02:46:09;;;;;;;29.70;20.30;;;;;;;4.57;76.87;101193.86;1655151;84;21549;-64
2021/11/13 02:48:40;;;;;;;29.27;20.63;;;;;;;4.56;77.00;101195.67;1667129;84;21042;-65
2021/11/13 02:51:08;;;;;;;29.73;22.07;;;;;;;4.54;76.81;101200.25;1669079;84;21030;-64
2021/11/13 02:53:34;;;;;;;29.80;19.97;;;;;;;4.53;77.02;101201.20;1679958;84;21014;-65
2021/11/13 02:56:05;;;;;;;27.45;19.17;;;;;;;4.56;76.94;101196.13;1673124;84;21557;-64
2021/11/13 02:58:34;;;;;;;27.20;20.03;;;;;;;4.62;76.66;101193.83;1665326;84;21003;-64
2021/11/13 03:01:05;;;;;;;31.40;20.57;;;;;;;4.66;76.37;101199.70;1664812;84;21051;-64
2021/11/13 03:03:32;;;;;;;32.00;20.47;;;;;;;4.60;76.50;101199.72;1691628;84;21042;-64
2021/11/13 03:06:00;;;;;;;28.12;21.20;;;;;;;4.57;77.08;101201.78;1681397;84;21070;-64
2021/11/13 03:08:32;;;;;;;27.70;19.47;;;;;;;4.54;77.30;101200.70;1696055;83;21070;-64
2021/11/13 03:11:04;;;;;;;27.73;19.77;;;;;;;4.50;77.52;101215.96;1674359;84;21097;-65
2021/11/13 03:13:33;;;;;;;31.30;21.03;;;;;;;4.46;77.19;101219.36;1669488;84;21077;-63
2021/11/13 03:16:02;;;;;;;27.77;21.33;;;;;;;4.41;77.25;101220.71;1699133;84;20983;-64
2021/11/13 03:18:29;;;;;;;30.67;21.47;;;;;;;4.38;77.39;101219.14;1699921;83;21042;-65
2021/11/13 03:20:55;;;;;;;29.57;21.27;;;;;;;4.40;77.62;101221.66;1688268;83;21065;-64
2021/11/13 03:23:24;;;;;;;31.82;21.95;;;;;;;4.36;77.62;101217.11;1691176;84;21071;-66
2021/11/13 03:26:00;;;;;;;31.33;22.93;;;;;;;4.32;77.85;101219.66;1687511;83;21021;-64
2021/11/13 03:28:29;;;;;;;32.10;21.90;;;;;;;4.32;77.80;101226.25;1690639;83;21185;-64
2021/11/13 03:31:00;;;;;;;31.13;20.17;;;;;;;4.31;77.51;101228.52;1679335;83;21112;-64
2021/11/13 03:33:23;;;;;;;34.83;22.23;;;;;;;4.33;77.39;101224.44;1688686;83;21576;-64
2021/11/13 03:35:49;;;;;;;29.10;19.75;;;;;;;4.33;77.02;101229.23;1657354;85;21026;-62
2021/11/13 03:38:18;;;;;;;35.63;21.25;;;;;;;4.29;77.35;101229.13;1689365;83;21036;-63
2021/11/13 03:40:47;;;;;;;35.00;23.00;;;;;;;4.24;77.68;101227.38;1657515;85;21027;-64
2021/11/13 03:43:14;;;;;;;31.00;21.43;;;;;;;4.19;77.76;101228.22;1694864;83;21032;-63
2021/11/13 03:45:43;;;;;;;30.90;21.37;;;;;;;4.15;78.08;101226.31;1697510;83;21517;-62
2021/11/13 03:48:09;;;;;;;31.07;21.03;;;;;;;4.18;78.41;101225.21;1693813;83;21054;-64
2021/11/13 03:50:40;;;;;;;28.23;19.13;;;;;;;4.25;77.98;101223.75;1671048;84;21005;-63
2021/11/13 03:53:07;;;;;;;28.87;20.87;;;;;;;4.28;77.92;101220.38;1687754;84;21073;-62
2021/11/13 03:55:36;;;;;;;29.13;20.10;;;;;;;4.31;77.86;101221.92;1669063;84;22395;-64
2021/11/13 03:58:03;;;;;;;28.10;21.73;;;;;;;4.30;77.85;101224.22;1691169;83;21085;-64
2021/11/13 04:00:30;;;;;;;33.10;22.07;;;;;;;4.28;78.09;101230.11;1703106;83;21069;-64
2021/11/13 04:02:58;;;;;;;32.07;22.47;;;;;;;4.25;78.01;101227.71;1691088;84;21045;-64
2021/11/13 04:05:25;;;;;;;32.77;23.57;;;;;;;4.20;78.06;101229.87;1694940;84;21102;-64
2021/11/13 04:07:52;;;;;;;;;;;;;;;4.18;77.91;101231.35;1678359;85;21042;-64
2021/11/13 04:10:19;;;;;;;28.52;20.70;;;;;;;4.19;77.78;101226.90;1674006;85;20132;-64
2021/11/13 04:12:47;;;;;;;30.90;20.60;;;;;;;4.14;77.77;101233.86;1651187;85;21062;-61
2021/11/13 04:15:15;;;;;;;32.27;20.57;;;;;;;4.12;77.62;101232.31;1640941;86;21513;-62
2021/11/13 04:17:44;;;;;;;32.10;22.60;;;;;;;4.09;77.92;101233.41;1635835;86;21065;-61
2021/11/13 04:20:11;;;;;;;29.73;21.70;;;;;;;4.03;77.83;101237.38;1668211;84;21034;-64
2021/11/13 04:22:40;;;;;;;34.27;22.53;;;;;;;3.94;77.91;101238.58;1655656;84;21046;-62
2021/11/13 04:25:08;;;;;;;34.13;24.23;;;;;;;3.85;77.99;101237.05;1637324;87;21049;-62
2021/11/13 04:27:35;;;;;;;29.57;22.20;;;;;;;3.82;78.02;101240.41;1642754;86;21074;-65
2021/11/13 04:30:01;;;;;;;;;;;;;;;3.81;77.59;101240.06;1660951;85;22180;-64
2021/11/13 04:32:33;;;;;;;29.00;20.50;;;;;;;3.77;77.59;101239.92;1647446;87;20135;-64
2021/11/13 04:37:26;;;;;;;34.98;22.55;;;;;;;3.70;78.30;101247.50;1668873;84;21041;-63
2021/11/13 04:39:52;;;;;;;33.17;23.63;;;;;;;3.66;78.25;101250.86;1684537;84;21008;-64
2021/11/13 04:42:20;;;;;;;33.07;23.47;;;;;;;3.58;78.33;101241.86;1663502;85;21073;-64
2021/11/13 04:44:47;;;;;;;28.30;21.53;;;;;;;3.50;78.59;101244.64;1653548;84;21008;-63
2021/11/13 04:47:15;;;;;;;31.27;22.03;;;;;;;3.47;78.75;101258.05;1643625;86;21066;-63
2021/11/13 04:49:42;;;;;;;34.07;22.43;;;;;;;3.51;78.95;101262.61;1661423;84;21108;-64
2021/11/13 04:52:09;;;;;;;30.80;22.07;;;;;;;3.53;78.66;101262.01;1635224;86;21044;-63
2021/11/13 04:54:37;;;;;;;32.50;22.87;;;;;;;3.53;78.31;101269.09;1692952;83;21074;-63
2021/11/13 04:57:06;;;;;;;29.07;23.23;;;;;;;3.48;78.15;101274.24;1693310;83;21514;-62
2021/11/13 04:59:33;;;;;;;36.57;23.63;;;;;;;3.37;78.01;101280.82;1694033;83;21139;-63
2021/11/13 05:02:00;;;;;;;35.58;24.37;;;;;;;3.23;78.25;101281.86;1699875;82;21108;-63
2021/11/13 05:04:29;;;;;;;30.87;23.93;;;;;;;3.15;78.75;101280.30;1707002;82;21031;-64
2021/11/13 05:06:55;;;;;;;35.80;25.80;;;;;;;3.10;78.60;101279.80;1707665;82;21122;-63
2021/11/13 05:09:21;;;;;;;30.15;22.73;;;;;;;3.10;78.51;101279.80;1710303;82;21057;-64
2021/11/13 05:11:47;;;;;;;32.15;23.32;;;;;;;3.12;78.90;101280.52;1716810;82;21022;-62
2021/11/13 05:14:14;;;;;;;31.97;23.60;;;;;;;3.15;78.87;101280.30;1726572;82;21558;-62
2021/11/13 05:16:40;;;;;;;25.95;19.75;;;;;;;3.15;78.70;101291.33;1708669;82;21046;-65
2021/11/13 05:19:08;;;;;;;34.23;24.97;;;;;;;3.09;78.77;101292.63;1699406;83;21116;-63
2021/11/13 05:21:37;;;;;;;30.43;23.30;;;;;;;3.05;78.98;101295.97;1690080;82;21032;-63
2021/11/13 05:24:05;;;;;;;34.23;24.93;;;;;;;3.01;78.75;101297.63;1689523;83;21038;-64
2021/11/13 05:26:31;;;;;;;32.93;23.50;;;;;;;2.96;78.62;101301.93;1710917;83;21375;-62
2021/11/13 05:28:57;;;;;;;33.67;24.43;;;;;;;3.01;78.52;101304.20;1699480;83;21028;-61
2021/11/13 05:31:23;;;;;;;32.20;24.07;;;;;;;3.07;78.50;101305.05;1708815;83;21042;-63
2021/11/13 05:33:49;;;;;;;;;;;;;;;3.11;78.68;101304.72;1695129;83;20992;-62
2021/11/13 05:36:16;;;;;;;34.23;23.93;;;;;;;3.17;79.01;101313.12;1692334;83;20119;-68
2021/11/13 05:38:42;;;;;;;34.10;24.87;;;;;;;3.15;79.05;101313.23;1693008;83;21510;-63
2021/11/13 05:41:09;;;;;;;35.27;24.37;;;;;;;3.16;78.50;101323.28;1693811;83;21551;-64
2021/11/13 05:43:35;;;;;;;35.15;25.52;;;;;;;3.14;78.12;101326.52;1692031;83;21117;-63
2021/11/13 05:46:02;;;;;;;36.80;26.30;;;;;;;3.16;78.40;101329.38;1699175;82;21079;-65
2021/11/13 05:48:29;;;;;;;31.77;23.60;;;;;;;3.25;78.21;101330.50;1692097;83;21002;-63
2021/11/13 05:50:55;;;;;;;35.33;26.20;;;;;;;3.35;78.12;101335.91;1715904;82;21041;-64
2021/11/13 05:53:21;;;;;;;;;;;;;;;3.46;78.16;101335.92;1713134;82;21069;-64
2021/11/13 05:55:47;;;;;;;37.67;25.73;;;;;;;3.55;78.21;101338.34;1720371;82;20172;-64
2021/11/13 05:58:15;;;;;;;39.48;28.85;;;;;;;3.55;78.69;101343.62;1723018;82;21003;-63
2021/11/13 06:00:42;;;;;;;37.90;28.60;;;;;;;3.62;78.81;101343.51;1721821;82;21023;-65
2021/11/13 06:03:08;;;;;;;35.05;24.45;;;;;;;3.78;79.36;101343.98;1719427;82;21123;-64
2021/11/13 06:05:35;;;;;;;39.03;26.13;;;;;;;3.78;79.36;101343.98;1713635;82;21081;-64
2021/11/13 06:08:01;;;;;;;;;;;;;;;3.99;79.07;101355.96;1722274;82;21560;-64
2021/11/13 06:10:28;;;;;;;35.43;25.87;;;;;;;4.14;78.31;101353.09;1716363;82;20112;-65
2021/11/13 06:12:55;;;;;;;34.63;25.73;;;;;;;4.21;77.99;101369.63;1707183;82;21079;-67
2021/11/13 06:15:24;;;;;;;37.87;27.77;;;;;;;4.29;77.79;101370.34;1701322;83;21160;-68
2021/11/13 06:17:50;;;;;;;35.28;27.52;;;;;;;4.36;77.52;101369.38;1714393;83;21047;-62
2021/11/13 06:20:17;;;;;;;37.90;27.85;;;;;;;4.42;77.58;101374.99;1714491;83;21042;-72
2021/11/13 06:22:44;;;;;;;39.20;27.87;;;;;;;4.50;77.59;101375.70;1711044;83;21034;-61
2021/11/13 06:25:12;;;;;;;;;;;;;;;4.63;77.59;101372.91;1711189;84;20984;-62
2021/11/13 06:27:40;;;;;;;40.80;27.00;;;;;;;4.79;77.11;101373.34;1706477;84;20136;-62
2021/11/13 06:30:10;;;;;;;33.53;24.23;;;;;;;4.85;76.93;101370.20;1699386;84;21550;-65
2021/11/13 06:32:38;;;;;;;37.40;27.70;;;;;;;4.95;76.85;101372.92;1709684;84;21046;-65
2021/11/13 06:35:08;;;;;;;38.60;27.87;;;;;;;5.06;76.98;101372.05;1707695;82;21631;-63
2021/11/13 06:37:36;;;;;;;37.53;27.97;;;;;;;5.10;76.42;101372.63;1717088;82;22506;-60
2021/11/13 06:40:05;;;;;;;41.80;30.33;;;;;;;5.10;76.60;101369.98;1710860;82;21518;-69
2021/11/13 06:42:32;;;;;;;34.90;27.73;;;;;;;5.11;76.25;101374.32;1721391;82;21561;-62
2021/11/13 06:44:58;;;;;;;;;;;;;;;5.13;76.41;101377.18;1705609;82;21038;-62
2021/11/13 06:47:24;;;;;;;40.90;28.60;;;;;;;5.24;75.98;101369.69;1691548;84;20167;-61
2021/11/13 06:49:52;;;;;;;38.60;28.60;;;;;;;5.22;75.85;101364.52;1691862;84;21041;-61
2021/11/13 06:52:19;;;;;;;;;;;;;;;5.32;75.72;101371.69;1695676;83;21089;-63
2021/11/13 06:54:45;;;;;;;41.20;29.27;;;;;;;5.13;75.52;101349.92;1692351;84;20133;-63
2021/11/13 06:57:11;;;;;;;43.97;31.87;;;;;;;5.11;75.98;101379.61;1706517;82;21027;-64
2021/11/13 06:59:37;;;;;;;40.52;30.95;;;;;;;5.06;76.43;101385.25;1725423;82;21060;-63
2021/11/13 07:02:04;;;;;;;44.20;28.62;;;;;;;5.12;76.41;101387.38;1723007;82;21532;-62
2021/11/13 07:04:30;;;;;;;38.67;28.92;;;;;;;5.21;76.29;101386.63;1718831;82;20968;-62
2021/11/13 07:06:56;;;;;;;39.98;30.00;;;;;;;5.34;76.04;101385.13;1724446;82;21538;-64
2021/11/13 07:09:22;;;;;;;;;;;;;;;5.45;75.70;101390.84;1725196;82;21043;-65
2021/11/13 07:11:49;;;;;;;39.73;29.70;;;;;;;5.50;75.55;101388.66;1721221;82;20192;-64
2021/11/13 07:14:15;;;;;;;;;;;;;;;5.49;75.59;101390.09;1724610;82;21047;-64
2021/11/13 07:16:44;;;;;;;45.80;32.75;;;;;;;5.53;75.62;101384.90;1720540;82;20160;-62
2021/11/13 07:19:11;;;;;;;41.03;31.37;;;;;;;5.54;75.40;101390.06;1722519;82;21016;-64
2021/11/13 07:21:39;;;;;;;44.48;30.97;;;;;;;5.56;75.09;101382.84;1723513;82;21083;-64
2021/11/13 07:24:08;;;;;;;43.43;30.70;;;;;;;5.61;75.06;101391.23;1713480;82;21580;-64
2021/11/13 07:26:35;;;;;;;38.80;29.47;;;;;;;5.74;74.94;101394.13;1721237;82;21071;-65
2021/11/13 07:29:04;;;;;;;46.13;28.77;;;;;;;5.85;74.29;101399.34;1723188;82;21127;-63
2021/11/13 07:31:32;;;;;;;39.37;29.27;;;;;;;5.86;74.25;101394.42;1722814;82;21486;-62
2021/11/13 07:33:59;;;;;;;37.00;28.97;;;;;;;5.83;74.23;101397.33;1723392;82;21066;-66
2021/11/13 07:36:26;;;;;;;38.27;29.33;;;;;;;5.81;74.53;101405.39;1719579;82;21079;-66
2021/11/13 07:38:54;;;;;;;43.50;30.03;;;;;;;5.85;74.35;101402.83;1718159;82;21059;-66
2021/11/13 07:41:23;;;;;;;38.10;28.10;;;;;;;5.86;73.93;101405.01;1721466;82;21010;-63
2021/11/13 07:43:50;;;;;;;38.23;27.40;;;;;;;5.90;74.11;101406.42;1718609;82;21636;-65
2021/11/13 07:46:17;;;;;;;31.97;25.37;;;;;;;5.98;74.16;101405.30;1695398;83;21173;-67
2021/11/13 07:48:43;;;;;;;38.33;28.23;;;;;;;6.05;73.83;101410.91;1693884;83;21022;-64
2021/11/13 07:51:09;;;;;;;35.75;28.27;;;;;;;6.03;73.84;101405.75;1691264;83;21081;-65
2021/11/13 07:53:36;;;;;;;41.63;29.80;;;;;;;6.02;73.79;101412.00;1692873;83;21069;-65
2021/11/13 07:56:03;;;;;;;38.73;29.40;;;;;;;6.06;73.94;101413.06;1693102;83;20967;-66
2021/11/13 07:58:29;;;;;;;36.10;27.58;;;;;;;6.10;73.92;101413.15;1696410;83;21613;-67
2021/11/13 08:00:56;;;;;;;;;;;;;;;6.17;73.60;101405.86;1696077;83;21141;-65
2021/11/13 08:03:23;;;;;;;32.78;27.20;;;;;;;6.28;73.26;101410.23;1694637;83;20116;-66
2021/11/13 08:05:50;;;;;;;39.90;27.53;;;;;;;6.25;73.07;101403.87;1693251;83;21073;-63
2021/11/13 08:08:18;;;;;;;42.38;28.47;;;;;;;6.25;73.23;101406.52;1693984;83;21010;-64
2021/11/13 08:10:46;;;;;;;41.37;27.77;;;;;;;6.30;73.51;101405.63;1690998;83;21133;-61
2021/11/13 08:13:17;;;;;;;33.37;26.10;;;;;;;6.38;73.09;101411.58;1702392;83;21031;-59
2021/11/13 08:15:45;;;;;;;34.70;27.70;;;;;;;6.41;72.98;101410.83;1694107;83;21164;-62
2021/11/13 08:18:12;;;;;;;43.57;32.17;;;;;;;6.46;72.93;101409.58;1689048;83;21014;-64
2021/11/13 08:20:40;;;;;;;43.77;31.77;;;;;;;6.50;72.88;101409.66;1694018;83;21546;-62
2021/11/13 08:23:09;;;;;;;42.70;33.07;;;;;;;6.57;72.21;101413.44;1691383;83;21049;-66
2021/11/13 08:25:39;;;;;;;39.10;29.43;;;;;;;6.65;72.17;101411.44;1690495;84;21018;-64
2021/11/13 08:28:07;;;;;;;42.83;31.10;;;;;;;6.73;71.87;101405.81;1690026;84;21038;-67
2021/11/13 08:30:34;;;;;;;44.67;32.43;;;;;;;6.81;71.65;101407.28;1683715;84;20980;-63
2021/11/13 08:33:01;;;;;;;38.07;31.33;;;;;;;6.84;71.56;101404.86;1680416;84;21545;-64
2021/11/13 08:35:29;;;;;;;41.60;31.70;;;;;;;6.89;71.46;101397.81;1678009;84;20986;-66
2021/11/13 08:37:56;;;;;;;39.93;30.03;;;;;;;6.70;71.12;101354.41;1673927;85;21032;-63
2021/11/13 08:40:23;;;;;;;47.33;30.43;;;;;;;6.98;71.12;101403.61;1681957;84;21506;-62
2021/11/13 08:42:49;;;;;;;40.78;29.82;;;;;;;7.04;70.95;101399.56;1681580;84;21479;-61
2021/11/13 08:45:15;;;;;;;42.75;30.23;;;;;;;7.08;70.97;101405.77;1693956;82;21066;-61
2021/11/13 08:47:43;;;;;;;37.80;28.40;;;;;;;7.15;70.81;101409.53;1704603;82;21065;-59
2021/11/13 08:50:23;;;;;;;48.23;34.13;;;;;;;7.23;70.25;101408.01;1709442;82;21026;-60
2021/11/13 08:52:52;;;;;;;41.63;32.33;;;;;;;7.31;70.28;101412.11;1708831;82;21094;-60
2021/11/13 08:55:25;;;;;;;49.40;36.10;;;;;;;7.44;69.75;101413.16;1719049;82;21173;-61
2021/11/13 08:57:52;;;;;;;49.57;39.30;;;;;;;7.47;69.75;101411.55;1716730;82;20999;-59
2021/11/13 09:00:27;;;;;;;53.13;39.40;;;;;;;7.43;69.62;101405.69;1671389;84;22004;-61
2021/11/13 09:02:56;;;;;;;59.20;44.43;;;;;;;7.44;69.63;101412.69;1713440;82;21108;-61
2021/11/13 09:05:25;;;;;;;51.37;41.07;;;;;;;7.46;69.58;101411.19;1704545;82;21034;-62
2021/11/13 09:07:54;;;;;;;50.50;36.83;;;;;;;7.49;69.41;101416.23;1706374;82;20975;-62
2021/11/13 09:10:22;;;;;;;48.10;38.07;;;;;;;7.51;69.11;101410.28;1688082;84;21557;-66
2021/11/13 09:12:51;;;;;;;46.60;35.57;;;;;;;7.50;68.96;101407.30;1721958;82;21095;-64
2021/11/13 09:15:24;;;;;;;41.73;32.47;;;;;;;7.52;69.16;101408.82;1719192;82;20998;-65
2021/11/13 09:17:53;;;;;;;42.50;34.27;;;;;;;7.60;68.74;101403.63;1723054;82;22078;-64
2021/11/13 09:20:23;;;;;;;49.83;37.90;;;;;;;7.70;68.60;101410.73;1721315;82;21034;-62
2021/11/13 09:22:51;;;;;;;49.50;38.00;;;;;;;7.76;68.47;101404.84;1718892;82;21033;-63
2021/11/13 09:25:20;;;;;;;53.60;40.00;;;;;;;7.79;68.33;101402.75;1729201;82;21038;-63
2021/11/13 09:27:49;;;;;;;56.43;39.70;;;;;;;7.83;67.85;101403.80;1733849;82;21046;-62
2021/11/13 09:30:23;;;;;;;61.07;42.40;;;;;;;7.83;67.69;101414.41;1724581;82;21039;-62
2021/11/13 09:32:51;;;;;;;54.63;41.57;;;;;;;7.74;67.53;101408.14;1722945;82;21094;-64
2021/11/13 09:35:18;;;;;;;62.27;45.90;;;;;;;7.60;67.74;101402.80;1713449;82;20986;-63
2021/11/13 09:37:46;;;;;;;69.97;46.93;;;;;;;7.54;67.83;101407.36;1715930;82;21052;-65
2021/11/13 09:40:19;;;;;;;58.07;42.37;;;;;;;7.39;68.22;101405.63;1729097;82;21058;-63
2021/11/13 09:42:48;;;;;;;60.60;42.40;;;;;;;7.29;68.61;101399.48;1716770;82;21528;-63
2021/11/13 09:45:15;;;;;;;56.53;40.10;;;;;;;7.24;69.01;101403.89;1701337;82;21062;-62
2021/11/13 09:47:49;;;;;;;56.37;40.97;;;;;;;7.20;69.22;101403.83;1715572;83;21000;-62
2021/11/13 09:50:16;;;;;;;57.87;41.70;;;;;;;7.13;69.64;101402.22;1712614;83;21009;-64
2021/11/13 09:52:44;;;;;;;50.47;38.07;;;;;;;7.10;70.15;101402.52;1708480;83;21562;-62
2021/11/13 09:55:13;;;;;;;53.25;38.75;;;;;;;7.16;69.97;101397.97;1707222;82;21073;-62
2021/11/13 09:57:41;;;;;;;55.50;39.27;;;;;;;7.16;69.95;101393.98;1738092;81;21010;-62
2021/11/13 10:00:10;;;;;;;;;;;;;;;7.15;70.05;101398.94;1728702;81;21021;-62
2021/11/13 10:02:38;;;;;;;59.87;40.57;;;;;;;7.20;69.99;101389.25;1742219;81;20130;-64
2021/11/13 10:05:06;;;;;;;55.10;34.07;;;;;;;7.25;70.10;101388.81;1747792;81;21603;-63
2021/11/13 10:07:35;;;;;;;48.70;36.17;;;;;;;7.37;69.80;101390.34;1747523;81;20962;-64
2021/11/13 10:10:08;;;;;;;54.10;39.53;;;;;;;7.42;69.47;101397.38;1740998;81;21011;-62
2021/11/13 10:12:41;;;;;;;53.43;39.10;;;;;;;7.39;69.39;101398.50;1706987;82;20999;-62
2021/11/13 10:15:35;;;;;;;54.83;39.77;;;;;;;7.37;69.51;101396.98;1728950;82;21095;-64
2021/11/13 10:18:12;;;;;;;54.67;41.43;;;;;;;7.38;69.55;101397.31;1725336;82;20989;-62
2021/11/13 10:20:44;;;;;;;58.03;40.83;;;;;;;7.37;69.54;101396.48;1718095;82;21034;-63
2021/11/13 10:23:23;;;;;;;58.30;41.33;;;;;;;7.33;69.65;101392.94;1717249;82;21003;-63
2021/11/13 10:26:07;;;;;;;52.70;36.97;;;;;;;7.31;69.77;101388.24;1722529;82;21017;-62
2021/11/13 10:28:44;;;;;;;53.13;36.63;;;;;;;7.33;69.74;101386.31;1715292;82;21027;-63
2021/11/13 10:31:22;;;;;;;55.37;38.67;;;;;;;7.33;69.68;101381.01;1729323;82;21057;-66
2021/11/13 10:33:53;;;;;;;51.10;36.47;;;;;;;7.31;69.96;101388.24;1727470;82;21692;-65
2021/11/13 10:36:25;;;;;;;50.40;35.90;;;;;;;7.33;70.01;101395.59;1720077;82;21052;-65
2021/11/13 10:39:08;;;;;;;52.33;37.43;;;;;;;7.30;70.00;101383.43;1658091;85;21081;-66
2021/11/13 10:41:52;;;;;;;57.40;38.30;;;;;;;7.29;70.10;101383.56;1650625;84;21135;-66
2021/11/13 10:44:35;;;;;;;59.00;36.37;;;;;;;7.26;70.22;101391.83;1706708;82;21121;-65
2021/11/13 10:47:22;;;;;;;51.77;35.03;;;;;;;7.21;70.28;101387.79;1714926;82;21074;-62
2021/11/13 10:49:52;;;;;;;52.60;35.83;;;;;;;7.24;70.46;101395.11;1681819;84;21416;-65
2021/11/13 10:52:21;;;;;;;52.33;36.37;;;;;;;7.24;70.32;101389.31;1683383;84;21082;-66
2021/11/13 10:54:50;;;;;;;46.63;33.57;;;;;;;7.26;70.41;101397.95;1706942;82;21077;-65
2021/11/13 10:57:28;;;;;;;46.50;34.53;;;;;;;7.28;70.45;101396.00;1719938;82;21709;-64
2021/11/13 10:59:55;;;;;;;57.60;38.63;;;;;;;7.26;70.43;101401.94;1718617;82;21285;-67
2021/11/13 11:02:23;;;;;;;51.93;36.30;;;;;;;7.24;70.49;101401.73;1715778;82;21089;-64
2021/11/13 11:04:49;;;;;;;57.17;37.33;;;;;;;7.24;70.57;101396.44;1703885;82;21562;-64
2021/11/13 11:07:24;;;;;;;47.47;35.87;;;;;;;7.25;70.54;101398.09;1722563;82;20994;-67
2021/11/13 11:10:01;;;;;;;55.27;37.03;;;;;;;7.27;70.52;101400.11;1721750;82;21078;-61
2021/11/13 11:12:32;;;;;;;52.33;35.27;;;;;;;7.27;70.45;101400.11;1726161;82;20994;-63
2021/11/13 11:15:00;;;;;;;52.30;34.80;;;;;;;7.27;70.43;101398.32;1722379;82;21008;-63
2021/11/13 11:17:29;;;;;;;56.83;38.63;;;;;;;7.29;70.49;101394.17;1720118;82;21001;-64
2021/11/13 11:20:13;;;;;;;54.80;38.57;;;;;;;7.29;70.67;101396.83;1724911;82;21033;-63
2021/11/13 11:22:40;;;;;;;57.23;39.33;;;;;;;7.30;70.78;101394.54;1713870;82;21123;-64
2021/11/13 11:25:12;;;;;;;54.53;38.77;;;;;;;7.32;70.81;101393.41;1691200;83;21066;-62
2021/11/13 11:27:43;;;;;;;55.20;37.00;;;;;;;7.36;70.69;101393.97;1693129;83;21048;-64
2021/11/13 11:30:19;;;;;;;57.33;38.33;;;;;;;7.38;70.55;101395.98;1691924;83;22244;-63